Airfield :
LOGIN :

Register | Disclaimer

   EN    FR    IT 

 










Legend :    VFR   Marginal VFR   IFR   Intensive IFR   Very Intensive IFR
Visi :
Ceiling :
>= 8 km
>= 3000ft
5 to 8 km
1000 to 3000 ft
1500m to 5 km
500 to 1000 ft
800 to 1500m
200 to 500 ft
< 800m
< 200 ft
Symbols :   Thunderstorms  Fog  Heavy snow  Heavy precipitations  Wind > 20 kt
SIGMETs :     Misc.  Thunderstorms  Icing  Turbulence  Mountain Waves  Volcanic Ashes






- Airport Elevation : 220 ft
- IATA code : CWL


EGFF - Cardiff Rhoose

CURRENT METAR :
  • 250020Z AUTO 20006KT 170V230 9999 OVC015 17/15 Q1015

EXPIRED METARs :
  • 242350Z AUTO 21005KT 9999 OVC015 16/15 Q1015
  • 242320Z AUTO 24004KT 9999 OVC014 16/15 Q1015
  • 242250Z AUTO 22003KT 180V240 9999 OVC011 16/15 Q1016
  • 242220Z 23004KT 200V260 9999 BKN011 16/15 Q1016
  • 242150Z 22006KT 200V260 9999 BKN013 16/15 Q1016
  • 242120Z AUTO 21007KT 170V230 9999 OVC012 16/15 Q1016
  • 242050Z 20005KT 9999 SCT007 OVC014 16/15 Q1016
  • 242020Z 18003KT 130V210 9999 SCT004 OVC012 15/15 Q1017
  • 241950Z 19003KT 9999 SCT003 OVC014 15/15 Q1017

TAF AMD TAF EGFF
Valid from the 25 at 00:00 until the 26 at 00:00 UTC


242355Z 2500/2524 20008KT 9999 BKN015
BECMG 2500/2503 BKN006
TEMPO 2500/2509 4000 -DZ BKN004
PROB40
TEMPO 2502/2507 1200 DZ BR OVC001
BECMG 2506/2509 26010KT
BECMG 2509/2512 SCT025
PROB30
TEMPO 2509/2522 6000 -DZ RA
TEMPO 2518/2524 BKN008
ATIS : +44 1446 729 319



MET'MAP, your aeronautical weather chart ! - Copyright ORBIFLY December 2007 - Disclaimer

ORBIFLY MET'MAP TEAM :

Programming & Development : Alexandra Zaïnal
Original concept : Baudouin d'Aumeries
Technical & hardware support : Manuel Goepfert
Assistance : Marc-Olivier Méhu




SOURCES & CREDITS :

   NOAA